Time;durP1;ratioP1;P1;durP2;ratioP2;P2;SDS_P1;SDS_P2;PMS_P1;PMS_P2;Temp;Humidity;BMP_temperature;BMP_pressure;BME280_temperature;BME280_humidity;BME280_pressure;Samples;Min_cycle;Max_cycle;Signal;HPM_P1;HPM_P2
2023/01/21 00:01:05;;;;;;;55.78;20.70;;;;;;;3.35;68.66;102800.34;5063479;28;20036;-40
2023/01/21 00:03:31;;;;;;;53.78;20.30;;;;;;;3.35;69.05;102800.34;5060005;28;20097;-40
2023/01/21 00:05:59;;;;;;;55.75;20.88;;;;;;;3.58;67.92;102797.72;5064529;28;20040;-42
2023/01/21 00:08:25;;;;;;;56.47;21.13;;;;;;;3.36;67.76;102804.69;5062425;28;20033;-41
2023/01/21 00:10:51;;;;;;;54.50;20.88;;;;;;;3.49;68.44;102805.69;5069373;28;20032;-42
2023/01/21 00:13:16;;;;;;;51.50;19.77;;;;;;;3.45;67.68;102815.69;5064614;28;20101;-42
2023/01/21 00:15:42;;;;;;;52.90;20.00;;;;;;;3.35;68.04;102810.66;5068234;28;20032;-40
2023/01/21 00:18:07;;;;;;;49.70;19.35;;;;;;;3.49;67.43;102812.53;5066748;28;20028;-40
2023/01/21 00:20:33;;;;;;;54.17;20.08;;;;;;;3.57;66.19;102814.88;5059399;28;20490;-41
2023/01/21 00:22:58;;;;;;;55.72;20.52;;;;;;;3.14;68.23;102821.16;5064221;28;20501;-41
2023/01/21 00:25:24;;;;;;;57.20;21.08;;;;;;;3.20;68.78;102819.03;5059780;28;20097;-42
2023/01/21 00:27:49;;;;;;;52.33;19.42;;;;;;;3.38;67.57;102822.06;5064791;28;20406;-44
2023/01/21 00:30:15;;;;;;;53.72;20.48;;;;;;;3.33;67.28;102833.72;5062508;28;20055;-39
2023/01/21 00:32:40;;;;;;;52.17;19.85;;;;;;;3.31;67.27;102839.53;5066863;28;20044;-40
2023/01/21 00:35:06;;;;;;;51.55;20.73;;;;;;;3.19;67.68;102843.00;5063964;28;20064;-40
2023/01/21 00:37:32;;;;;;;52.42;19.88;;;;;;;3.28;67.43;102849.63;5059857;28;20037;-45
2023/01/21 00:39:57;;;;;;;52.60;20.60;;;;;;;3.24;67.45;102849.41;5045800;28;20414;-41
2023/01/21 00:42:22;;;;;;;53.55;20.48;;;;;;;3.12;67.37;102852.75;5058928;28;20154;-40
2023/01/21 00:44:48;;;;;;;56.83;21.23;;;;;;;3.04;67.95;102853.88;5063788;28;20028;-40
2023/01/21 00:47:13;;;;;;;53.67;20.92;;;;;;;3.19;67.58;102858.47;5059827;28;20086;-40
2023/01/21 00:49:38;;;;;;;52.78;20.25;;;;;;;3.24;68.43;102863.97;5063402;28;20356;-43
2023/01/21 00:52:04;;;;;;;53.53;20.63;;;;;;;3.15;68.27;102863.28;5062839;28;20034;-40
2023/01/21 00:54:31;;;;;;;55.78;21.33;;;;;;;3.00;68.85;102862.13;5059345;28;20078;-42
2023/01/21 00:56:59;;;;;;;56.35;20.80;;;;;;;3.00;69.49;102865.59;5063621;28;20036;-43
2023/01/21 00:59:27;;;;;;;53.20;21.05;;;;;;;3.11;68.23;102864.72;5059522;28;20028;-41
2023/01/21 01:01:52;;;;;;;55.85;20.83;;;;;;;3.08;67.78;102869.66;5062487;28;20024;-39
2023/01/21 01:04:18;;;;;;;59.00;20.98;;;;;;;3.14;68.42;102875.28;5059462;28;20032;-40
2023/01/21 01:06:44;;;;;;;59.75;20.30;;;;;;;3.13;68.11;102873.47;5063314;28;20101;-43
2023/01/21 01:09:11;;;;;;;53.85;20.90;;;;;;;3.02;68.06;102882.09;5068414;28;20398;-44
2023/01/21 01:11:37;;;;;;;58.33;21.27;;;;;;;2.68;70.72;102880.31;5065123;28;20035;-43
2023/01/21 01:14:03;;;;;;;66.75;22.55;;;;;;;2.72;69.87;102882.34;5069914;28;20086;-41
2023/01/21 01:16:28;;;;;;;62.42;21.83;;;;;;;2.89;70.52;102881.94;5066099;28;20098;-40
2023/01/21 01:18:54;;;;;;;68.07;22.83;;;;;;;2.75;71.68;102878.31;5070953;28;20426;-40
2023/01/21 01:21:21;;;;;;;65.03;22.20;;;;;;;2.90;70.68;102886.31;5066617;28;20032;-42
2023/01/21 01:23:48;;;;;;;61.17;21.38;;;;;;;3.09;69.42;102884.34;5064946;28;20028;-41
2023/01/21 01:26:19;;;;;;;61.10;21.50;;;;;;;3.20;68.63;102891.19;5059587;28;20055;-39
2023/01/21 01:28:45;;;;;;;61.05;22.35;;;;;;;2.81;70.63;102895.91;5063655;28;20040;-40
2023/01/21 01:31:13;;;;;;;64.30;22.20;;;;;;;3.03;69.64;102904.50;5061563;28;20123;-40
2023/01/21 01:33:39;;;;;;;56.60;20.77;;;;;;;3.15;68.84;102892.53;5061448;28;20059;-40
2023/01/21 01:36:09;;;;;;;60.20;21.65;;;;;;;3.09;68.88;102901.50;5062985;28;20060;-39
2023/01/21 01:38:34;;;;;;;60.20;21.92;;;;;;;3.11;68.32;102897.38;5059288;28;20036;-40
2023/01/21 01:41:00;;;;;;;58.95;21.17;;;;;;;3.08;68.35;102904.84;5062392;28;20037;-40
2023/01/21 01:43:47;;;;;;;66.50;22.58;;;;;;;3.05;68.77;102900.34;5059139;28;20040;-42
2023/01/21 01:46:13;;;;;;;62.38;21.80;;;;;;;2.96;67.75;102909.06;5061265;28;20039;-39
2023/01/21 01:48:41;;;;;;;62.33;21.65;;;;;;;2.93;68.53;102912.28;5070760;28;20036;-43
2023/01/21 01:51:08;;;;;;;59.92;20.75;;;;;;;2.92;68.00;102920.81;5070809;28;20029;-41
2023/01/21 01:53:36;;;;;;;58.08;22.05;;;;;;;2.97;67.13;102929.81;5063962;28;20124;-40
2023/01/21 01:56:02;;;;;;;60.42;21.90;;;;;;;2.91;68.69;102937.06;5062380;28;20090;-40
2023/01/21 01:58:29;;;;;;;64.65;22.00;;;;;;;2.94;68.60;102944.09;5059073;28;20114;-40
2023/01/21 02:00:55;;;;;;;58.70;20.77;;;;;;;2.96;68.14;102950.28;5063478;28;20028;-41
2023/01/21 02:06:05;;;;;;;63.03;21.90;;;;;;;3.03;67.62;102961.19;5061240;28;20081;-42
2023/01/21 02:08:33;;;;;;;59.10;21.20;;;;;;;3.04;68.15;102959.50;5059568;28;20037;-41
2023/01/21 02:10:59;;;;;;;66.00;21.50;;;;;;;2.97;67.96;102964.97;5062406;28;20032;-40
2023/01/21 02:13:26;;;;;;;62.05;21.27;;;;;;;2.91;68.46;102964.50;5058702;28;20031;-42
2023/01/21 02:15:58;;;;;;;61.10;20.85;;;;;;;2.89;68.34;102961.78;5062379;28;20392;-37
2023/01/21 02:18:51;;;;;;;60.83;22.30;;;;;;;2.97;68.29;102962.41;5059066;28;20135;-42
2023/01/21 02:21:42;;;;;;;63.70;21.77;;;;;;;2.84;67.62;102958.88;5057383;28;20472;-40
2023/01/21 02:24:46;;;;;;;58.50;21.00;;;;;;;2.77;68.59;102966.91;5061941;28;20031;-41
2023/01/21 02:27:49;;;;;;;62.33;20.85;;;;;;;2.68;68.51;102983.31;5058077;28;20047;-40
2023/01/21 02:30:14;;;;;;;59.65;20.45;;;;;;;2.68;68.67;102998.78;5058272;28;20107;-45
2023/01/21 02:33:12;;;;;;;65.25;21.92;;;;;;;2.73;68.46;103006.09;5057691;28;20116;-41
2023/01/21 02:35:40;;;;;;;58.58;20.70;;;;;;;2.89;69.29;103018.47;5058217;28;20090;-41
2023/01/21 02:38:08;;;;;;;70.68;21.80;;;;;;;2.94;69.68;103016.25;5062412;28;20037;-41
2023/01/21 02:40:45;;;;;;;66.40;21.15;;;;;;;3.05;69.77;103018.00;5057668;28;20038;-40
2023/01/21 02:43:20;;;;;;;62.75;20.98;;;;;;;3.15;69.92;103023.97;5061892;28;20081;-41
2023/01/21 02:45:54;;;;;;;64.97;20.70;;;;;;;3.31;70.05;103025.16;5058205;28;20052;-40
2023/01/21 02:48:27;;;;;;;58.47;19.52;;;;;;;3.33;69.79;103026.19;5058191;28;20136;-44
2023/01/21 02:50:53;;;;;;;62.97;20.98;;;;;;;3.34;69.54;103025.41;5061770;28;20560;-42
2023/01/21 02:53:33;;;;;;;61.55;20.38;;;;;;;3.50;70.12;103033.50;5040172;28;20037;-42
2023/01/21 02:56:07;;;;;;;59.50;20.42;;;;;;;3.59;69.84;103035.13;5061702;28;20041;-42
2023/01/21 02:58:36;;;;;;;65.75;21.45;;;;;;;3.48;69.82;103030.81;5057951;28;20036;-43
2023/01/21 03:01:18;;;;;;;65.38;21.83;;;;;;;3.56;69.89;103021.97;5060955;28;20024;-40
2023/01/21 03:04:02;;;;;;;61.78;20.65;;;;;;;3.64;69.40;103025.16;5058618;28;20037;-41
2023/01/21 03:06:47;;;;;;;60.95;20.67;;;;;;;3.79;68.97;103028.84;5058128;28;20375;-40
2023/01/21 03:09:23;;;;;;;60.97;20.35;;;;;;;3.83;68.33;103028.31;5057822;28;20124;-42
2023/01/21 03:11:58;;;;;;;58.83;20.10;;;;;;;3.65;67.99;103026.94;5061108;28;20111;-43
2023/01/21 03:17:33;;;;;;;56.28;19.35;;;;;;;3.50;68.05;103029.25;5058080;28;20141;-40
2023/01/21 03:20:11;;;;;;;55.55;19.85;;;;;;;3.47;67.61;103031.63;5061144;28;20107;-42
2023/01/21 03:22:38;;;;;;;56.47;19.55;;;;;;;3.39;67.48;103031.81;5056717;28;20040;-43
2023/01/21 03:25:06;;;;;;;55.65;19.75;;;;;;;3.30;67.08;103036.22;5086196;22;20473;-45
2023/01/21 03:27:33;;;;;;;54.33;19.80;;;;;;;3.20;67.58;103044.94;5043526;28;20040;-46
2023/01/21 03:30:09;;;;;;;51.58;18.90;;;;;;;3.12;68.02;103041.78;5063450;28;20032;-44
2023/01/21 03:32:35;;;;;;;58.88;19.10;;;;;;;3.02;68.23;103047.00;5060575;28;20032;-44
2023/01/21 03:35:04;;;;;;;52.97;18.52;;;;;;;3.01;68.29;103057.19;5066650;28;20075;-44
2023/01/21 03:37:32;;;;;;;52.40;18.85;;;;;;;3.03;68.33;103056.53;5067679;28;20513;-45
2023/01/21 03:40:10;;;;;;;52.67;18.48;;;;;;;3.00;67.60;103061.44;5062160;28;20036;-42
2023/01/21 03:42:35;;;;;;;50.83;18.15;;;;;;;2.98;68.38;103057.84;5061227;28;20036;-44
2023/01/21 03:45:01;;;;;;;53.30;19.25;;;;;;;3.02;67.52;103062.47;5066375;28;20084;-45
2023/01/21 03:47:32;;;;;;;58.33;19.77;;;;;;;3.00;67.55;103063.09;5066417;28;20033;-45
2023/01/21 03:50:12;;;;;;;55.00;19.27;;;;;;;2.90;68.55;103064.06;5072578;28;20032;-45
2023/01/21 03:52:40;;;;;;;54.75;19.20;;;;;;;2.97;68.44;103063.78;5060924;28;20029;-45
2023/01/21 03:55:07;;;;;;;52.53;19.40;;;;;;;2.94;68.39;103060.94;5065045;28;20067;-45
2023/01/21 03:57:32;;;;;;;57.03;19.30;;;;;;;2.87;68.34;103057.78;5061209;28;20039;-44
2023/01/21 03:59:58;;;;;;;55.78;18.58;;;;;;;2.80;68.06;103064.13;5065163;28;20033;-44
2023/01/21 04:02:23;;;;;;;52.25;17.65;;;;;;;2.74;68.08;103064.53;5060248;28;20039;-45
2023/01/21 04:04:48;;;;;;;58.95;20.33;;;;;;;2.67;67.91;103071.66;5064826;28;20032;-45
2023/01/21 04:07:15;;;;;;;55.55;19.25;;;;;;;2.67;68.14;103067.41;5061616;28;20583;-44
2023/01/21 04:09:40;;;;;;;60.35;19.55;;;;;;;2.67;68.12;103066.50;5074893;28;20036;-46
2023/01/21 04:12:06;;;;;;;54.60;19.05;;;;;;;2.70;68.68;103075.34;5073998;28;20051;-43
2023/01/21 04:14:31;;;;;;;56.03;19.45;;;;;;;2.69;68.73;103077.81;5070391;28;20041;-48
2023/01/21 04:16:57;;;;;;;56.50;19.50;;;;;;;2.63;69.26;103078.22;5073039;28;20041;-44
2023/01/21 04:19:22;;;;;;;59.72;19.45;;;;;;;2.64;69.09;103086.84;5064818;28;20445;-46
2023/01/21 04:21:47;;;;;;;57.67;18.77;;;;;;;2.69;68.28;103082.94;5065119;28;20056;-47
2023/01/21 04:24:12;;;;;;;59.78;19.17;;;;;;;2.71;68.65;103086.56;5061169;28;20571;-46
2023/01/21 04:26:38;;;;;;;57.15;19.50;;;;;;;2.56;68.42;103080.19;5064400;28;20510;-45
2023/01/21 04:29:03;;;;;;;53.83;18.40;;;;;;;2.67;68.69;103081.97;5064804;28;20029;-46
2023/01/21 04:31:28;;;;;;;54.78;19.75;;;;;;;2.68;68.23;103078.59;5060261;28;20039;-44
2023/01/21 04:33:54;;;;;;;66.97;20.30;;;;;;;2.54;69.41;103085.22;5064096;28;20498;-43
2023/01/21 04:36:19;;;;;;;58.20;19.85;;;;;;;2.67;70.10;103084.53;5055401;28;20579;-43
2023/01/21 04:38:45;;;;;;;60.83;19.98;;;;;;;2.73;69.15;103088.50;5064584;28;20125;-44
2023/01/21 04:41:10;;;;;;;57.78;19.50;;;;;;;2.74;68.56;103085.16;5063432;28;20024;-47
2023/01/21 04:43:35;;;;;;;64.18;20.17;;;;;;;2.71;68.79;103094.28;5060643;28;20066;-43
2023/01/21 04:46:01;;;;;;;53.65;19.50;;;;;;;2.70;68.57;103084.75;5064145;28;20032;-46
2023/01/21 04:48:26;;;;;;;53.03;18.45;;;;;;;2.67;68.14;103097.41;5060425;28;20044;-51
2023/01/21 04:50:51;;;;;;;56.05;19.13;;;;;;;2.64;67.78;103095.47;5063182;28;20273;-44
2023/01/21 04:53:16;;;;;;;53.65;18.65;;;;;;;2.59;68.25;103095.88;5060453;28;20120;-45
2023/01/21 04:55:42;;;;;;;57.05;19.27;;;;;;;2.54;68.11;103103.25;5063752;28;20032;-43
2023/01/21 04:58:07;;;;;;;56.22;19.30;;;;;;;2.54;68.38;103103.25;5064461;28;20564;-45
2023/01/21 05:00:32;;;;;;;56.60;19.48;;;;;;;2.58;67.81;103107.84;5059867;28;20056;-45
2023/01/21 05:02:58;;;;;;;55.97;18.75;;;;;;;2.52;67.68;103107.34;5065493;28;20035;-43
2023/01/21 05:05:23;;;;;;;57.05;19.42;;;;;;;2.51;68.53;103105.56;5061968;28;20112;-48
2023/01/21 05:07:52;;;;;;;53.90;18.88;;;;;;;2.51;68.42;103112.38;5067886;28;20039;-44
2023/01/21 05:10:17;;;;;;;52.53;19.40;;;;;;;2.52;67.98;103116.75;5066721;28;20477;-43
2023/01/21 05:12:42;;;;;;;58.20;18.38;;;;;;;2.53;67.65;103119.47;5071551;28;20033;-45
2023/01/21 05:15:08;;;;;;;57.00;18.92;;;;;;;2.49;68.02;103113.94;5072156;28;20090;-49
2023/01/21 05:17:34;;;;;;;56.20;19.45;;;;;;;2.44;67.75;103118.69;5067484;28;20043;-46
2023/01/21 05:19:59;;;;;;;55.13;19.33;;;;;;;2.45;68.36;103125.66;5070888;28;20043;-44
2023/01/21 05:22:24;;;;;;;52.35;17.95;;;;;;;2.45;68.14;103123.97;5067779;28;20024;-45
2023/01/21 05:24:50;;;;;;;53.17;19.15;;;;;;;2.49;68.13;103130.28;5071717;28;20025;-43
2023/01/21 05:27:15;;;;;;;59.63;19.48;;;;;;;2.44;68.47;103126.41;5066585;28;20054;-47
2023/01/21 05:29:40;;;;;;;53.75;18.33;;;;;;;2.44;68.46;103127.31;5070540;28;20029;-46
2023/01/21 05:32:06;;;;;;;48.78;18.25;;;;;;;2.37;67.76;103137.00;5069607;28;20078;-43
2023/01/21 05:34:32;;;;;;;54.60;19.52;;;;;;;2.27;68.03;103130.19;5064643;28;20457;-42
2023/01/21 05:36:57;;;;;;;56.10;19.20;;;;;;;2.22;68.27;103141.78;5063148;28;20036;-48
2023/01/21 05:39:22;;;;;;;53.70;18.30;;;;;;;2.25;67.57;103144.63;5059463;28;20452;-45
2023/01/21 05:41:47;;;;;;;57.83;20.08;;;;;;;2.17;68.05;103143.09;5062328;28;20115;-44
2023/01/21 05:44:13;;;;;;;55.65;19.17;;;;;;;2.15;67.97;103144.63;5059235;28;20375;-48
2023/01/21 05:46:38;;;;;;;55.30;18.02;;;;;;;2.17;67.42;103148.22;5063418;28;20402;-45
2023/01/21 05:49:03;;;;;;;53.90;18.90;;;;;;;2.20;68.55;103155.28;5063216;28;20119;-46
2023/01/21 05:51:28;;;;;;;56.70;19.35;;;;;;;2.26;67.53;103156.69;5040558;28;20096;-45
2023/01/21 05:53:54;;;;;;;56.28;18.65;;;;;;;2.18;68.01;103157.75;5063264;28;20028;-46
2023/01/21 05:56:19;;;;;;;57.78;18.95;;;;;;;2.16;67.93;103161.88;5059164;28;20047;-44
2023/01/21 05:58:45;;;;;;;55.20;18.45;;;;;;;2.15;68.04;103169.44;5062842;28;20402;-47
2023/01/21 06:01:10;;;;;;;52.72;18.17;;;;;;;2.15;67.77;103175.50;5061845;28;20029;-44
2023/01/21 06:03:36;;;;;;;54.97;19.33;;;;;;;2.12;67.75;103170.09;5058212;28;20035;-43
2023/01/21 06:06:02;;;;;;;49.08;18.55;;;;;;;2.14;67.44;103183.06;5044978;28;20025;-44
2023/01/21 06:08:27;;;;;;;54.10;18.20;;;;;;;2.13;67.64;103183.88;5059230;28;20041;-47
2023/01/21 06:10:55;;;;;;;51.13;18.50;;;;;;;2.02;67.27;103188.09;5061852;28;20041;-44
2023/01/21 06:13:20;;;;;;;58.25;19.13;;;;;;;1.96;67.58;103192.72;5058600;28;20033;-43
2023/01/21 06:15:46;;;;;;;49.22;17.65;;;;;;;1.92;67.62;103193.25;5062609;28;20082;-44
2023/01/21 06:18:11;;;;;;;53.25;18.35;;;;;;;1.88;67.20;103199.81;5060717;28;20021;-43
2023/01/21 06:20:36;;;;;;;59.10;19.33;;;;;;;1.87;67.44;103203.16;5063470;28;20036;-45
2023/01/21 06:23:02;;;;;;;55.33;19.05;;;;;;;1.90;67.19;103205.97;5065476;28;20125;-46
2023/01/21 06:25:27;;;;;;;49.95;18.80;;;;;;;1.96;67.28;103208.16;5058080;28;20074;-46
2023/01/21 06:27:57;;;;;;;53.33;18.67;;;;;;;1.95;67.56;103211.53;5062647;28;20087;-44
2023/01/21 06:30:23;;;;;;;50.08;17.30;;;;;;;1.88;67.53;103219.50;5058164;28;20040;-48
2023/01/21 06:32:48;;;;;;;52.70;18.17;;;;;;;1.84;67.44;103218.31;5065230;28;20029;-46
2023/01/21 06:35:14;;;;;;;56.65;19.10;;;;;;;1.84;67.76;103218.31;5067929;28;20102;-45
2023/01/21 06:37:39;;;;;;;51.72;18.60;;;;;;;1.82;67.94;103232.72;5065796;28;20509;-45
2023/01/21 06:40:06;;;;;;;58.08;19.13;;;;;;;1.90;68.31;103231.69;5062721;28;20046;-48
2023/01/21 06:42:32;;;;;;;53.67;19.17;;;;;;;2.02;67.89;103239.53;5057847;28;20592;-45
2023/01/21 06:44:57;;;;;;;55.50;18.85;;;;;;;1.97;67.25;103235.69;5062610;28;20024;-45
2023/01/21 06:47:22;;;;;;;53.38;19.13;;;;;;;1.92;67.32;103239.53;5043066;28;20033;-44
2023/01/21 06:49:48;;;;;;;54.08;19.02;;;;;;;2.01;67.73;103236.06;5065444;28;20082;-44
2023/01/21 06:52:13;;;;;;;49.33;17.88;;;;;;;1.99;67.49;103236.72;5061186;28;20050;-49
2023/01/21 06:54:38;;;;;;;54.17;18.45;;;;;;;1.93;67.58;103243.94;5065175;28;20040;-44
2023/01/21 06:57:04;;;;;;;49.20;18.33;;;;;;;1.94;67.32;103245.72;5064603;28;20043;-45
2023/01/21 06:59:29;;;;;;;48.30;18.00;;;;;;;1.90;67.06;103248.78;5063304;28;20032;-44
2023/01/21 07:01:57;;;;;;;51.15;17.75;;;;;;;1.87;67.27;103254.59;5067707;28;20166;-45
2023/01/21 07:04:23;;;;;;;52.53;18.92;;;;;;;1.66;68.07;103256.97;5064307;28;20056;-43
2023/01/21 07:06:48;;;;;;;51.03;18.85;;;;;;;1.72;67.84;103265.19;5072124;28;20082;-46
2023/01/21 07:09:14;;;;;;;56.25;19.40;;;;;;;1.81;67.67;103263.44;5068396;28;20036;-44
2023/01/21 07:11:39;;;;;;;54.28;18.52;;;;;;;1.80;68.01;103269.34;5074752;28;20486;-45
2023/01/21 07:14:04;;;;;;;52.17;18.38;;;;;;;1.79;67.42;103268.44;5075021;28;20550;-49
2023/01/21 07:16:29;;;;;;;53.35;17.80;;;;;;;1.76;67.83;103268.19;5067836;28;20075;-44
2023/01/21 07:18:55;;;;;;;55.20;18.23;;;;;;;1.74;68.08;103273.97;5073578;28;20383;-47
2023/01/21 07:21:20;;;;;;;47.78;16.67;;;;;;;1.72;67.94;103278.06;5065809;28;20039;-44
2023/01/21 07:23:45;;;;;;;52.35;17.60;;;;;;;1.69;68.34;103270.09;5069843;28;20033;-47
2023/01/21 07:26:11;;;;;;;48.45;17.90;;;;;;;1.65;67.54;103276.63;5069717;28;20044;-44
2023/01/21 07:28:36;;;;;;;55.90;19.00;;;;;;;1.58;68.21;103270.06;5064252;28;20505;-44
2023/01/21 07:31:02;;;;;;;54.28;18.88;;;;;;;1.59;68.31;103269.28;5068864;28;20426;-46
2023/01/21 07:33:27;;;;;;;63.28;20.30;;;;;;;1.54;68.84;103274.78;5065361;28;20041;-45
2023/01/21 07:35:53;;;;;;;69.20;20.08;;;;;;;1.54;69.92;103278.25;5068112;28;20715;-43
2023/01/21 07:38:18;;;;;;;61.05;18.98;;;;;;;1.67;69.24;103280.25;5063905;28;20500;-45
2023/01/21 07:40:47;;;;;;;53.92;18.77;;;;;;;1.72;67.81;103285.78;5067340;28;20036;-44
2023/01/21 07:43:13;;;;;;;52.38;17.88;;;;;;;1.70;68.21;103292.47;5063252;28;20089;-45
2023/01/21 07:45:38;;;;;;;52.30;17.90;;;;;;;1.70;68.21;103292.47;5065936;28;20041;-44
2023/01/21 07:48:04;;;;;;;53.03;17.83;;;;;;;1.67;68.50;103298.25;5065784;28;20041;-45
2023/01/21 07:50:29;;;;;;;53.97;18.55;;;;;;;1.69;68.12;103301.88;5044581;28;20047;-44
2023/01/21 07:52:54;;;;;;;52.90;18.52;;;;;;;1.72;68.37;103314.06;5066169;28;20032;-45
2023/01/21 07:55:20;;;;;;;52.35;17.60;;;;;;;1.74;68.33;103318.59;5060813;28;20127;-45
2023/01/21 07:57:46;;;;;;;60.75;19.75;;;;;;;1.74;67.95;103327.97;5065214;28;20055;-45
2023/01/21 08:00:12;;;;;;;61.58;21.00;;;;;;;1.55;70.14;103333.16;5061557;28;20474;-44
2023/01/21 08:02:38;;;;;;;60.03;19.40;;;;;;;1.72;69.28;103332.06;5064853;28;20041;-46
2023/01/21 08:05:05;;;;;;;59.40;19.33;;;;;;;1.76;68.81;103332.50;5065145;28;20035;-46
2023/01/21 08:07:30;;;;;;;60.83;20.17;;;;;;;1.89;68.64;103337.03;5061307;28;20044;-44
2023/01/21 08:09:55;;;;;;;56.75;19.27;;;;;;;1.90;68.42;103341.38;5065177;28;20036;-45
2023/01/21 08:12:21;;;;;;;61.72;20.60;;;;;;;1.96;68.34;103342.84;5061004;28;20119;-46
2023/01/21 08:14:46;;;;;;;55.83;19.88;;;;;;;2.03;68.84;103349.41;5065035;28;20051;-45
2023/01/21 08:17:11;;;;;;;55.90;18.63;;;;;;;2.09;68.44;103357.66;5062865;28;20081;-44
2023/01/21 08:19:37;;;;;;;58.22;19.60;;;;;;;2.22;69.24;103359.63;5064368;28;20032;-43
2023/01/21 08:22:02;;;;;;;64.88;21.08;;;;;;;2.27;68.76;103358.34;5063609;28;20383;-48
2023/01/21 08:24:27;;;;;;;59.08;20.48;;;;;;;2.32;69.29;103355.41;5061322;28;20542;-46
2023/01/21 08:26:57;;;;;;;59.78;20.48;;;;;;;2.38;69.04;103350.78;5064704;28;20040;-47
2023/01/21 08:29:23;;;;;;;59.35;20.38;;;;;;;2.54;69.46;103357.25;5061033;28;20036;-46
2023/01/21 08:31:48;;;;;;;59.08;21.02;;;;;;;2.65;69.08;103352.22;5063866;28;20036;-44
2023/01/21 08:34:14;;;;;;;59.35;20.67;;;;;;;2.63;69.28;103358.91;5061565;28;20029;-45
2023/01/21 08:36:40;;;;;;;62.63;20.98;;;;;;;2.58;68.52;103365.34;5066507;28;20062;-44
2023/01/21 08:39:05;;;;;;;59.42;21.15;;;;;;;2.59;68.92;103367.16;5066093;28;20036;-43
2023/01/21 08:41:31;;;;;;;62.67;21.08;;;;;;;2.61;69.21;103367.31;5065469;28;23266;-45
2023/01/21 08:43:56;;;;;;;65.70;20.92;;;;;;;2.65;69.77;103364.22;5066437;28;20112;-46
2023/01/21 08:46:22;;;;;;;70.60;22.63;;;;;;;2.57;70.09;103366.13;5067603;28;20728;-50
2023/01/21 08:48:47;;;;;;;64.95;21.77;;;;;;;2.60;69.31;103371.56;5073674;28;20507;-46
2023/01/21 08:51:12;;;;;;;66.60;22.63;;;;;;;2.56;69.78;103371.16;5069179;28;20096;-47
2023/01/21 08:53:37;;;;;;;61.10;20.95;;;;;;;2.67;69.46;103367.81;5070520;28;20036;-44
2023/01/21 08:56:04;;;;;;;63.92;21.55;;;;;;;2.86;68.72;103373.75;5068083;28;20036;-44
2023/01/21 08:58:31;;;;;;;60.70;20.35;;;;;;;2.89;69.73;103380.81;5061329;28;20166;-45
2023/01/21 09:00:56;;;;;;;65.63;21.27;;;;;;;3.08;69.08;103376.44;5063369;28;20029;-48
2023/01/21 09:03:22;;;;;;;61.80;21.70;;;;;;;2.90;69.80;103386.13;5060019;28;20563;-43
2023/01/21 09:05:50;;;;;;;63.83;21.75;;;;;;;2.97;69.62;103382.38;5063548;28;20039;-43
2023/01/21 09:08:16;;;;;;;63.78;20.77;;;;;;;3.14;69.88;103383.00;5060668;28;20383;-44
2023/01/21 09:11:00;;;;;;;63.13;21.38;;;;;;;3.21;69.45;103371.53;5045799;28;20116;-45
2023/01/21 09:13:26;;;;;;;67.97;21.40;;;;;;;3.35;69.88;103377.84;5060251;28;20037;-47
2023/01/21 09:15:51;;;;;;;63.80;21.30;;;;;;;3.48;69.58;103389.25;5063411;28;20410;-46
2023/01/21 09:18:17;;;;;;;66.90;21.83;;;;;;;3.70;69.18;103386.75;5041643;28;20028;-45
2023/01/21 09:20:42;;;;;;;63.22;21.77;;;;;;;3.74;69.38;103395.63;5063349;28;20365;-46
2023/01/21 09:23:23;;;;;;;67.50;22.77;;;;;;;3.80;69.27;103396.13;5064173;28;20127;-48
2023/01/21 09:25:59;;;;;;;68.20;22.17;;;;;;;3.77;69.11;103396.81;5072176;22;20047;-42
2023/01/21 09:28:24;;;;;;;58.25;20.33;;;;;;;3.87;69.75;103399.34;5041313;28;20041;-45
2023/01/21 09:30:55;;;;;;;66.07;23.55;;;;;;;3.98;69.62;103392.44;5044041;28;20033;-43
2023/01/21 09:33:21;;;;;;;65.63;22.50;;;;;;;3.98;69.11;103401.09;5039783;28;20028;-41
2023/01/21 09:35:52;;;;;;;69.78;23.38;;;;;;;4.05;69.23;103400.81;5044571;28;20056;-42
2023/01/21 09:38:17;;;;;;;68.25;23.70;;;;;;;4.12;68.67;103391.88;5041639;28;20031;-42
2023/01/21 09:40:44;;;;;;;63.35;22.08;;;;;;;4.15;69.54;103405.00;5042907;28;20037;-44
2023/01/21 09:43:16;;;;;;;71.65;22.73;;;;;;;4.21;69.78;103402.03;5027355;28;20461;-39
2023/01/21 09:45:44;;;;;;;68.03;22.45;;;;;;;4.33;69.83;103414.22;5023978;28;20033;-42
2023/01/21 09:48:25;;;;;;;64.85;22.55;;;;;;;4.41;69.70;103417.41;5045360;28;20041;-42
2023/01/21 09:50:52;;;;;;;65.15;23.05;;;;;;;4.45;69.39;103416.88;5041014;28;20082;-42
2023/01/21 09:53:27;;;;;;;68.00;22.70;;;;;;;4.28;69.43;103420.69;5041707;28;20633;-42
2023/01/21 09:55:58;;;;;;;65.70;23.25;;;;;;;4.38;69.24;103427.50;5044874;28;20041;-43
2023/01/21 09:58:45;;;;;;;63.40;23.35;;;;;;;4.40;69.09;103433.69;5041772;28;20507;-42
2023/01/21 10:01:21;;;;;;;66.85;22.88;;;;;;;4.22;69.85;103439.97;5044853;28;20064;-42
2023/01/21 10:03:58;;;;;;;67.22;24.23;;;;;;;4.17;69.69;103441.28;5042417;28;20507;-42
2023/01/21 10:06:34;;;;;;;63.63;23.40;;;;;;;4.49;69.75;103442.16;5042849;28;20061;-43
2023/01/21 10:09:06;;;;;;;65.13;23.73;;;;;;;4.48;69.57;103448.09;5048857;28;20440;-42
2023/01/21 10:11:51;;;;;;;67.90;24.73;;;;;;;4.30;68.80;103444.97;5041941;28;20040;-42
2023/01/21 10:14:54;;;;;;;65.75;23.60;;;;;;;4.50;68.86;103436.22;5043995;28;20029;-43
2023/01/21 10:17:38;;;;;;;65.10;22.92;;;;;;;4.44;68.64;103440.91;5044737;28;20037;-43
2023/01/21 10:20:16;;;;;;;66.68;23.27;;;;;;;4.49;68.92;103440.50;5048712;28;20035;-45
2023/01/21 10:22:50;;;;;;;50.67;20.55;;;;;;;4.33;68.46;103434.88;5043171;28;20045;-44
2023/01/21 10:25:40;;;;;;;46.90;19.05;;;;;;;4.31;68.38;103435.56;5040855;28;20229;-42
2023/01/21 10:28:27;;;;;;;43.80;18.42;;;;;;;3.83;69.40;103446.31;5043180;28;20033;-45
2023/01/21 10:31:33;;;;;;;46.25;18.58;;;;;;;3.99;68.81;103453.63;5038754;28;20080;-42
2023/01/21 10:33:58;;;;;;;;;;;;;;;4.33;68.81;103454.66;5038250;28;20035;-42
2023/01/21 10:36:48;;;;;;;40.58;16.27;;;;;;;4.15;69.06;103456.66;5036725;28;19921;-44
2023/01/21 10:39:37;;;;;;;42.30;17.10;;;;;;;4.29;68.66;103466.41;5040505;28;20183;-41
2023/01/21 10:42:08;;;;;;;40.03;17.25;;;;;;;4.36;67.79;103475.56;5025271;28;20124;-42
2023/01/21 10:44:46;;;;;;;47.10;18.10;;;;;;;4.19;69.16;103468.13;5042804;28;20406;-43
2023/01/21 10:47:27;;;;;;;45.78;16.90;;;;;;;4.16;67.18;103479.09;5046871;28;20497;-49
2023/01/21 10:50:09;;;;;;;41.50;17.67;;;;;;;4.21;68.31;103472.63;5045582;28;20569;-42
2023/01/21 10:52:49;;;;;;;41.45;17.80;;;;;;;4.04;68.84;103475.53;5043350;28;20462;-43
2023/01/21 10:55:35;;;;;;;41.47;17.38;;;;;;;4.35;67.26;103474.66;5044187;28;20037;-43
2023/01/21 10:58:10;;;;;;;46.80;17.75;;;;;;;4.07;68.70;103466.38;5047635;28;20033;-43
2023/01/21 11:00:39;;;;;;;41.72;16.40;;;;;;;4.31;68.65;103472.59;5043607;28;20036;-44
2023/01/21 11:03:15;;;;;;;42.22;18.40;;;;;;;4.04;68.51;103468.69;5047925;28;20488;-42
2023/01/21 11:05:41;;;;;;;43.45;18.30;;;;;;;4.26;67.78;103478.19;5042987;28;20060;-46
2023/01/21 11:08:17;;;;;;;41.13;17.67;;;;;;;4.37;67.39;103479.94;5047479;28;20498;-43
2023/01/21 11:10:44;;;;;;;40.50;17.67;;;;;;;4.42;67.91;103487.28;5043062;28;20031;-43
2023/01/21 11:13:13;;;;;;;39.92;16.67;;;;;;;4.31;67.77;103487.19;5047412;28;20044;-42
2023/01/21 11:15:45;;;;;;;41.85;16.95;;;;;;;4.37;66.27;103482.53;5044695;28;20399;-43
2023/01/21 11:18:39;;;;;;;38.33;16.42;;;;;;;4.24;65.93;103479.72;5050380;28;20025;-44
2023/01/21 11:21:23;;;;;;;40.87;17.23;;;;;;;4.41;68.15;103476.81;5045166;28;20037;-43
2023/01/21 11:24:22;;;;;;;38.65;16.92;;;;;;;4.56;66.77;103479.72;5045969;28;20280;-43
2023/01/21 11:26:56;;;;;;;38.03;16.50;;;;;;;4.69;65.12;103474.75;5020614;28;20586;-42
2023/01/21 11:29:23;;;;;;;36.50;15.88;;;;;;;5.10;66.16;103488.28;5016005;28;20120;-43
2023/01/21 11:32:01;;;;;;;39.75;16.90;;;;;;;5.19;65.89;103492.47;5053742;28;20033;-45